Onward, Mississippi
Current Conditions -  °F | °C
As of 5:53 AM on Sunday 23 Nov 2014 (Local Time) from KTVR Reporting Station
Light Rain Light Rain  
Wind Chill: 62°   Ceiling: 1300
Heat Index: 62°   Visibility: 10mi
Dew Point: 59°   Wind: 9mph
Humidity: 90%   Direction: 140°SE
Pressure: 29.72"   Gusts: NA
Location:  32.8112°N, 90.8327°W
Report Text: KTVR 231153Z AUTO 14008KT 10SM -RA OVC013 17/15 A2972 RMK AO2 RAB14 SLP071 P0001 60001 70001 T01670150 10172 20161 58014
Loading
Personal Weather Stations






























Interactive Weather Map New forecast layout! Learn more

10-Day Weather Forecast

Advertisements
Track Severe Weather on mobile